Central Falls, Rhode Island
Current Conditions -  °F | °C
As of 6:15 PM on Wednesday 17 Dec 2014 (Local Time) from KSFZ Reporting Station
Overcast Overcast  
Wind Chill: 41°   Ceiling: 3000
Heat Index: 45°   Visibility: 10mi
Dew Point: 34°   Wind: 7mph
Humidity: 66%   Direction: 290°WNW
Pressure: 29.74"   Gusts: NA
Location:  41.89°N, 71.39°W
Report Text: KSFZ 172315Z 29006KT 10SM SCT023 OVC030 07/01 A2974 RMK AO1
Loading
Personal Weather Stations






























Interactive Weather Map New forecast layout! Learn more

10-Day Weather Forecast

Advertisements
Track Severe Weather on mobile